createdAt,value
2018-08-27T00:01:34.269Z,20.41
2018-08-27T00:04:00.240Z,20.51
2018-08-27T00:06:26.205Z,20.32
2018-08-27T00:08:52.154Z,20.25
2018-08-27T00:11:18.129Z,20.09
2018-08-27T00:13:44.080Z,20.23
2018-08-27T00:16:10.027Z,20.27
2018-08-27T00:18:36.004Z,20.25
2018-08-27T00:21:01.964Z,20.33
2018-08-27T00:23:27.915Z,20.33
2018-08-27T00:25:53.861Z,20.48
2018-08-27T00:28:19.785Z,20.20
2018-08-27T00:30:45.737Z,20.39
2018-08-27T00:33:11.668Z,20.09
2018-08-27T00:35:37.676Z,20.22
2018-08-27T00:38:03.613Z,20.30
2018-08-27T00:40:29.553Z,20.07
2018-08-27T00:42:55.493Z,19.96
2018-08-27T00:45:21.448Z,20.06
2018-08-27T00:47:47.423Z,20.29
2018-08-27T00:50:13.366Z,20.05
2018-08-27T00:52:39.359Z,20.11
2018-08-27T00:55:05.315Z,20.23
2018-08-27T00:57:31.269Z,20.25
2018-08-27T00:59:57.238Z,20.24
2018-08-27T01:02:23.198Z,20.39
2018-08-27T01:04:49.148Z,20.25
2018-08-27T01:07:15.128Z,20.28
2018-08-27T01:09:41.265Z,20.13
2018-08-27T01:12:07.239Z,20.08
2018-08-27T01:14:33.173Z,19.84
2018-08-27T01:16:59.148Z,19.83
2018-08-27T01:19:25.105Z,19.68
2018-08-27T01:21:51.089Z,19.87
2018-08-27T01:24:17.047Z,19.86
2018-08-27T01:26:43.008Z,19.80
2018-08-27T01:29:08.963Z,19.79
2018-08-27T01:31:35.994Z,19.71
2018-08-27T01:34:01.951Z,19.83
2018-08-27T01:36:27.912Z,19.80
2018-08-27T01:38:53.843Z,19.85
2018-08-27T01:41:19.844Z,19.92
2018-08-27T01:43:45.812Z,19.89
2018-08-27T01:46:11.757Z,19.82
2018-08-27T01:48:37.707Z,19.74
2018-08-27T01:51:03.634Z,19.68
2018-08-27T01:53:29.566Z,19.69
2018-08-27T01:55:55.508Z,19.72
2018-08-27T01:58:21.444Z,19.45
2018-08-27T02:00:47.390Z,19.81
2018-08-27T02:03:13.334Z,19.58
2018-08-27T02:05:39.276Z,19.73
2018-08-27T02:08:05.242Z,19.58
2018-08-27T02:10:31.192Z,19.41
2018-08-27T02:12:57.127Z,19.52
2018-08-27T02:15:23.101Z,19.41
2018-08-27T02:17:49.039Z,19.61
2018-08-27T02:20:14.981Z,19.70
2018-08-27T02:22:40.912Z,19.65
2018-08-27T02:25:06.901Z,19.56
2018-08-27T02:27:32.855Z,19.51
2018-08-27T02:29:58.786Z,19.68
2018-08-27T02:32:24.733Z,19.69
2018-08-27T02:34:50.686Z,19.60
2018-08-27T02:37:16.658Z,19.56
2018-08-27T02:39:42.596Z,19.50
2018-08-27T02:42:08.544Z,19.57
2018-08-27T02:44:34.492Z,19.58
2018-08-27T02:47:00.452Z,19.58
2018-08-27T02:49:26.417Z,19.65
2018-08-27T02:51:52.357Z,19.79
2018-08-27T02:54:18.293Z,19.67
2018-08-27T02:56:44.230Z,19.66
2018-08-27T02:59:10.159Z,19.50
2018-08-27T03:01:36.090Z,19.69
2018-08-27T03:04:02.050Z,19.64
2018-08-27T03:06:28.025Z,19.74
2018-08-27T03:08:53.964Z,20.03
2018-08-27T03:11:19.924Z,20.00
2018-08-27T03:13:45.955Z,19.74
2018-08-27T03:16:11.896Z,19.97
2018-08-27T03:18:37.849Z,19.84
2018-08-27T03:21:03.803Z,19.90
2018-08-27T03:23:29.748Z,19.68
2018-08-27T03:25:55.768Z,19.89
2018-08-27T03:28:21.748Z,19.76
2018-08-27T03:30:47.693Z,19.65
2018-08-27T03:33:13.654Z,19.54
2018-08-27T03:35:39.629Z,19.79
2018-08-27T03:38:05.593Z,19.79
2018-08-27T03:45:34.429Z,19.70
2018-08-27T03:48:01.511Z,19.64
2018-08-27T03:50:30.475Z,19.64
2018-08-27T03:52:58.837Z,19.66
2018-08-27T03:55:25.715Z,19.54
2018-08-27T03:57:52.868Z,19.71
2018-08-27T04:00:19.125Z,19.69
2018-08-27T04:02:48.398Z,19.48
2018-08-27T04:05:18.091Z,19.46
2018-08-27T04:07:45.060Z,19.61
2018-08-27T04:10:16.813Z,19.17
2018-08-27T04:12:44.393Z,19.33
2018-08-27T04:15:13.007Z,19.64
2018-08-27T04:17:40.463Z,19.56
2018-08-27T04:20:08.704Z,19.73
2018-08-27T04:22:39.364Z,19.82
2018-08-27T04:25:06.694Z,19.74
2018-08-27T04:27:33.165Z,19.63
2018-08-27T04:29:59.866Z,19.70
2018-08-27T04:32:26.879Z,19.90
2018-08-27T04:34:53.426Z,19.99
2018-08-27T04:37:21.414Z,19.91
2018-08-27T04:39:49.106Z,19.89
2018-08-27T04:42:16.384Z,19.66
2018-08-27T04:44:43.582Z,19.74
2018-08-27T04:49:58.467Z,19.56
2018-08-27T04:52:24.642Z,19.37
2018-08-27T04:54:51.795Z,19.43
2018-08-27T04:57:19.498Z,19.49
2018-08-27T04:59:48.807Z,19.61
2018-08-27T05:04:49.972Z,19.77
2018-08-27T05:07:17.078Z,19.81
2018-08-27T05:09:43.305Z,20.12
2018-08-27T05:12:10.709Z,20.31
2018-08-27T05:14:36.859Z,20.67
2018-08-27T05:17:04.621Z,20.52
2018-08-27T05:19:31.705Z,20.49
2018-08-27T05:21:58.673Z,20.88
2018-08-27T05:24:24.834Z,21.14
2018-08-27T05:26:50.985Z,21.13
2018-08-27T05:29:19.017Z,21.29
2018-08-27T05:31:46.227Z,21.34
2018-08-27T05:34:13.322Z,21.19
2018-08-27T05:36:39.505Z,21.39
2018-08-27T05:39:06.699Z,21.60
2018-08-27T05:41:33.091Z,21.98
2018-08-27T05:44:02.248Z,21.75
2018-08-27T05:46:28.723Z,22.35
2018-08-27T05:48:55.056Z,22.52
2018-08-27T05:51:21.222Z,22.74
2018-08-27T05:53:47.672Z,22.67
2018-08-27T05:56:14.075Z,22.90
2018-08-27T05:58:41.570Z,22.82
2018-08-27T06:01:09.531Z,22.72
2018-08-27T06:03:35.965Z,22.84
2018-08-27T06:06:04.670Z,22.95
2018-08-27T06:08:32.283Z,22.59
2018-08-27T06:10:58.537Z,22.91
2018-08-27T06:13:30.562Z,22.85
2018-08-27T06:15:57.032Z,22.82
2018-08-27T06:18:26.129Z,22.91
2018-08-27T06:20:52.573Z,23.08
2018-08-27T06:23:19.512Z,23.19
2018-08-27T06:25:46.826Z,23.34
2018-08-27T06:28:13.806Z,23.10
2018-08-27T06:30:40.034Z,23.41
2018-08-27T06:33:06.882Z,23.63
2018-08-27T06:35:37.069Z,23.45
2018-08-27T06:40:44.580Z,23.68
2018-08-27T06:43:10.706Z,24.06
2018-08-27T06:45:37.652Z,24.22
2018-08-27T06:48:05.588Z,24.47
2018-08-27T06:50:34.782Z,24.46
2018-08-27T06:53:01.652Z,24.69
2018-08-27T06:55:29.596Z,24.44
2018-08-27T06:57:56.207Z,24.48
2018-08-27T07:00:22.380Z,24.75
2018-08-27T07:02:49.170Z,24.97
2018-08-27T07:05:15.606Z,25.08
2018-08-27T07:07:41.744Z,25.22
2018-08-27T07:10:10.422Z,25.55
2018-08-27T07:12:37.290Z,25.32
2018-08-27T07:15:04.830Z,25.53
2018-08-27T07:17:33.837Z,25.42
2018-08-27T07:20:00.080Z,25.37
2018-08-27T07:22:26.190Z,25.27
2018-08-27T07:24:52.929Z,25.55
2018-08-27T07:27:19.108Z,25.57
2018-08-27T07:29:45.246Z,25.54
2018-08-27T07:32:12.013Z,25.50
2018-08-27T07:34:38.955Z,25.38
2018-08-27T07:37:05.663Z,25.41
2018-08-27T07:39:31.802Z,25.43
2018-08-27T07:41:57.994Z,25.71
2018-08-27T07:44:25.160Z,26.21
2018-08-27T07:46:53.075Z,26.60
2018-08-27T07:49:20.118Z,26.77
2018-08-27T07:51:46.325Z,26.91
2018-08-27T07:54:14.809Z,26.83
2018-08-27T07:56:44.221Z,26.95
2018-08-27T07:59:12.182Z,26.85
2018-08-27T08:01:41.510Z,26.96
2018-08-27T08:04:09.202Z,27.28
2018-08-27T08:06:37.015Z,27.34
2018-08-27T08:09:04.382Z,27.20
2018-08-27T08:11:30.805Z,27.06
2018-08-27T08:13:57.041Z,27.17
2018-08-27T08:16:24.333Z,27.76
2018-08-27T08:18:52.977Z,28.37
2018-08-27T08:21:21.047Z,29.69
2018-08-27T08:23:47.992Z,32.14
2018-08-27T08:26:15.553Z,33.72
2018-08-27T08:28:42.256Z,34.28
2018-08-27T08:31:09.139Z,34.61
2018-08-27T08:33:35.372Z,34.04
2018-08-27T08:36:01.692Z,31.26
2018-08-27T08:38:31.508Z,29.33
2018-08-27T08:40:57.802Z,28.53
2018-08-27T08:43:25.903Z,27.60
2018-08-27T08:45:53.216Z,27.17
2018-08-27T08:48:20.327Z,27.04
2018-08-27T08:50:47.277Z,26.64
2018-08-27T08:53:13.785Z,26.35
2018-08-27T08:55:42.386Z,26.19
2018-08-27T08:58:13.121Z,26.25
2018-08-27T09:00:39.329Z,26.15
2018-08-27T09:03:05.486Z,25.93
2018-08-27T09:05:33.217Z,25.96
2018-08-27T09:08:00.683Z,25.87
2018-08-27T09:10:28.176Z,25.86
2018-08-27T09:12:54.300Z,25.72
2018-08-27T09:15:22.082Z,25.73
2018-08-27T09:17:49.515Z,25.79
2018-08-27T09:20:15.648Z,25.66
2018-08-27T09:22:41.832Z,25.59
2018-08-27T09:25:08.272Z,25.54
2018-08-27T09:27:35.763Z,25.68
2018-08-27T09:30:02.775Z,25.66
2018-08-27T09:32:29.144Z,25.55
2018-08-27T09:34:56.789Z,25.62
2018-08-27T09:37:23.124Z,25.69
2018-08-27T09:39:50.132Z,25.81
2018-08-27T09:42:17.384Z,25.81
2018-08-27T09:44:44.899Z,25.88
2018-08-27T09:47:11.068Z,25.83
2018-08-27T09:49:37.365Z,25.85
2018-08-27T09:52:05.471Z,25.78
2018-08-27T09:54:32.663Z,25.76
2018-08-27T09:56:59.759Z,25.73
2018-08-27T09:59:26.523Z,25.79
2018-08-27T10:01:53.522Z,25.83
2018-08-27T10:04:21.631Z,25.87
2018-08-27T10:06:49.337Z,25.87
2018-08-27T10:09:18.282Z,25.76
2018-08-27T10:11:44.610Z,25.75
2018-08-27T10:14:11.861Z,25.78
2018-08-27T10:16:39.499Z,25.86
2018-08-27T10:19:07.060Z,25.77
2018-08-27T10:21:35.230Z,25.75
2018-08-27T10:24:03.120Z,25.74
2018-08-27T10:26:30.008Z,25.81
2018-08-27T10:28:58.941Z,25.86
2018-08-27T10:31:25.288Z,25.81
2018-08-27T10:33:51.996Z,25.79
2018-08-27T10:36:19.481Z,25.76
2018-08-27T10:38:47.449Z,25.72
2018-08-27T10:41:14.439Z,25.82
2018-08-27T10:43:41.445Z,25.79
2018-08-27T10:46:07.818Z,25.85
2018-08-27T10:48:34.101Z,25.89
2018-08-27T10:51:00.329Z,25.95
2018-08-27T10:53:26.864Z,25.99
2018-08-27T10:55:53.200Z,25.94
2018-08-27T10:58:20.035Z,25.88
2018-08-27T11:00:46.731Z,25.95
2018-08-27T11:03:12.903Z,25.90
2018-08-27T11:05:39.231Z,25.89
2018-08-27T11:08:06.379Z,25.91
2018-08-27T11:10:32.902Z,25.86
2018-08-27T11:13:00.782Z,25.85
2018-08-27T11:15:27.111Z,25.90
2018-08-27T11:17:53.338Z,25.88
2018-08-27T11:20:20.326Z,25.85
2018-08-27T11:22:47.223Z,25.86
2018-08-27T11:25:13.656Z,25.88
2018-08-27T11:27:40.910Z,25.91
2018-08-27T11:30:07.169Z,25.88
2018-08-27T11:32:33.651Z,25.99
2018-08-27T11:35:00.205Z,25.93
2018-08-27T11:37:26.538Z,25.98
2018-08-27T11:39:52.864Z,25.90
2018-08-27T11:42:19.812Z,25.93
2018-08-27T11:44:46.236Z,26.00
2018-08-27T11:47:12.562Z,26.03
2018-08-27T11:49:39.411Z,25.98
2018-08-27T11:52:06.057Z,26.01
2018-08-27T11:54:32.280Z,26.00
2018-08-27T11:57:04.176Z,26.04
2018-08-27T11:59:34.558Z,25.99
2018-08-27T12:02:02.457Z,25.95
2018-08-27T12:04:29.380Z,25.99
2018-08-27T12:06:57.804Z,25.95
2018-08-27T12:09:24.066Z,25.89
2018-08-27T12:11:53.185Z,25.90
2018-08-27T12:14:19.308Z,25.93
2018-08-27T12:16:47.546Z,25.88
2018-08-27T12:19:14.937Z,25.92
2018-08-27T12:21:42.121Z,25.92
2018-08-27T12:24:08.573Z,25.95
2018-08-27T12:26:36.324Z,25.94
2018-08-27T12:29:03.688Z,25.94
2018-08-27T12:31:30.787Z,25.98
2018-08-27T12:33:56.854Z,25.96
2018-08-27T12:36:23.036Z,25.95
2018-08-27T12:38:49.367Z,25.92
2018-08-27T12:41:15.675Z,25.97
2018-08-27T12:43:43.067Z,26.06
2018-08-27T12:46:09.689Z,26.15
2018-08-27T12:48:39.091Z,26.06
2018-08-27T12:51:05.997Z,26.02
2018-08-27T12:53:32.505Z,25.98
2018-08-27T12:55:58.666Z,26.08
2018-08-27T12:58:25.640Z,26.06
2018-08-27T13:00:52.575Z,25.94
2018-08-27T13:03:19.479Z,26.08
2018-08-27T13:05:46.833Z,25.99
2018-08-27T13:08:15.845Z,25.90
2018-08-27T13:10:46.356Z,25.99
2018-08-27T13:13:13.926Z,26.14
2018-08-27T13:18:22.733Z,25.90
2018-08-27T13:20:48.996Z,25.93
2018-08-27T13:23:15.715Z,25.96
2018-08-27T13:25:43.674Z,25.98
2018-08-27T13:28:13.754Z,26.03
2018-08-27T13:30:41.722Z,26.05
2018-08-27T13:33:09.552Z,26.22
2018-08-27T13:35:38.331Z,26.26
2018-08-27T13:38:06.446Z,26.24
2018-08-27T13:40:33.514Z,26.08
2018-08-27T13:42:59.861Z,26.03
2018-08-27T13:45:26.689Z,26.03
2018-08-27T13:47:54.043Z,26.01
2018-08-27T13:50:20.947Z,26.08
2018-08-27T13:52:48.757Z,26.03
2018-08-27T13:55:15.965Z,26.12
2018-08-27T13:57:43.115Z,25.97
2018-08-27T14:00:10.683Z,25.99
2018-08-27T14:02:38.656Z,26.16
2018-08-27T14:05:05.630Z,26.06
2018-08-27T14:07:31.868Z,26.12
2018-08-27T14:10:01.500Z,26.18
2018-08-27T14:12:28.157Z,26.08
2018-08-27T14:14:54.755Z,26.09
2018-08-27T14:17:20.905Z,26.10
2018-08-27T14:22:23.680Z,26.06
2018-08-27T14:24:53.956Z,26.15
2018-08-27T14:27:21.650Z,26.13
2018-08-27T14:32:21.448Z,26.01
2018-08-27T14:34:47.570Z,26.09
2018-08-27T14:37:13.818Z,26.10
2018-08-27T14:39:41.096Z,26.08
2018-08-27T14:42:09.107Z,26.10
2018-08-27T14:44:39.202Z,26.07
2018-08-27T14:47:06.352Z,26.03
2018-08-27T14:49:33.496Z,26.04
2018-08-27T14:52:00.758Z,26.03
2018-08-27T14:54:31.619Z,26.15
2018-08-27T14:56:59.903Z,26.09
2018-08-27T14:59:26.306Z,26.16
2018-08-27T15:01:53.380Z,26.24
2018-08-27T15:04:20.632Z,26.51
2018-08-27T15:06:47.659Z,26.46
2018-08-27T15:09:14.705Z,26.30
2018-08-27T15:11:41.363Z,26.31
2018-08-27T15:14:08.410Z,26.39
2018-08-27T15:16:37.174Z,26.58
2018-08-27T15:19:04.391Z,26.56
2018-08-27T15:21:31.424Z,26.53
2018-08-27T15:23:59.027Z,26.72
2018-08-27T15:26:25.263Z,26.67
2018-08-27T15:28:51.608Z,26.35
2018-08-27T15:31:18.045Z,26.31
2018-08-27T15:33:47.549Z,26.23
2018-08-27T15:36:17.173Z,26.25
2018-08-27T15:38:43.640Z,26.16
2018-08-27T15:41:11.251Z,26.18
2018-08-27T15:43:39.230Z,26.40
2018-08-27T15:46:06.308Z,26.51
2018-08-27T15:48:34.230Z,26.40
2018-08-27T15:51:04.033Z,26.26
2018-08-27T15:53:32.293Z,26.28
2018-08-27T15:56:03.205Z,26.26
2018-08-27T15:58:30.819Z,26.37
2018-08-27T16:00:57.987Z,26.40
2018-08-27T16:03:25.831Z,26.29
2018-08-27T16:05:52.913Z,26.35
2018-08-27T16:08:22.078Z,26.36
2018-08-27T16:10:50.252Z,26.37
2018-08-27T16:13:18.214Z,26.34
2018-08-27T16:15:46.112Z,26.38
2018-08-27T16:18:15.657Z,26.58
2018-08-27T16:20:43.495Z,26.58
2018-08-27T16:23:11.789Z,26.74
2018-08-27T16:25:42.924Z,26.79
2018-08-27T16:28:09.039Z,26.77
2018-08-27T16:30:36.392Z,26.79
2018-08-27T16:33:03.445Z,26.84
2018-08-27T16:35:30.801Z,26.89
2018-08-27T16:38:00.251Z,26.65
2018-08-27T16:40:26.355Z,26.43
2018-08-27T16:42:55.794Z,26.44
2018-08-27T16:45:22.561Z,26.38
2018-08-27T16:47:48.754Z,26.46
2018-08-27T16:50:16.990Z,26.37
2018-08-27T16:52:44.550Z,26.29
2018-08-27T16:57:42.826Z,26.54
2018-08-27T17:00:09.109Z,26.62
2018-08-27T17:02:38.058Z,26.50
2018-08-27T17:05:06.024Z,26.45
2018-08-27T17:07:33.507Z,26.47
2018-08-27T17:10:02.999Z,26.54
2018-08-27T17:12:31.496Z,26.57
2018-08-27T17:14:58.752Z,26.77
2018-08-27T17:17:27.082Z,26.94
2018-08-27T17:19:58.974Z,26.84
2018-08-27T17:22:25.303Z,26.87
2018-08-27T17:24:52.374Z,26.84
2018-08-27T17:27:23.532Z,26.91
2018-08-27T17:29:53.579Z,26.86
2018-08-27T17:32:21.197Z,26.84
2018-08-27T17:34:53.600Z,26.98
2018-08-27T17:37:22.049Z,27.03
2018-08-27T17:39:50.210Z,27.04
2018-08-27T17:42:16.548Z,27.11
2018-08-27T17:44:45.143Z,27.23
2018-08-27T17:47:16.172Z,27.22
2018-08-27T17:49:42.397Z,27.21
2018-08-27T17:52:09.659Z,27.23
2018-08-27T17:54:36.870Z,27.18
2018-08-27T17:57:08.869Z,27.19
2018-08-27T17:59:39.406Z,27.15
2018-08-27T18:02:08.083Z,27.18
2018-08-27T18:07:06.175Z,27.17
2018-08-27T18:09:32.124Z,27.12
2018-08-27T18:11:58.080Z,27.13
2018-08-27T18:14:24.094Z,27.14
2018-08-27T18:16:50.121Z,27.10
2018-08-27T18:19:16.074Z,27.10
2018-08-27T18:21:42.138Z,27.08
2018-08-27T18:24:08.114Z,27.02
2018-08-27T18:26:34.167Z,27.04
2018-08-27T18:29:00.185Z,27.11
2018-08-27T18:31:26.271Z,27.13
2018-08-27T18:33:52.237Z,27.16
2018-08-27T18:36:18.186Z,27.10
2018-08-27T18:38:44.195Z,27.15
2018-08-27T18:41:10.227Z,27.03
2018-08-27T18:43:36.189Z,27.03
2018-08-27T18:46:02.657Z,27.14
2018-08-27T18:48:28.629Z,27.20
2018-08-27T18:50:54.573Z,27.19
2018-08-27T18:53:20.536Z,27.15
2018-08-27T18:55:46.616Z,27.23
2018-08-27T18:58:12.588Z,27.24
2018-08-27T19:00:38.637Z,27.31
2018-08-27T19:03:04.553Z,27.20
2018-08-27T19:05:30.717Z,27.25
2018-08-27T19:07:56.624Z,27.27
2018-08-27T19:10:22.625Z,27.23
2018-08-27T19:12:48.658Z,27.26
2018-08-27T19:15:14.669Z,27.26
2018-08-27T19:17:41.022Z,27.28
2018-08-27T19:20:07.091Z,27.32
2018-08-27T19:22:33.069Z,27.37
2018-08-27T19:24:59.034Z,27.35
2018-08-27T19:27:25.019Z,27.26
2018-08-27T19:29:51.055Z,27.25
2018-08-27T19:32:17.001Z,27.23
2018-08-27T19:34:43.019Z,27.28
2018-08-27T19:37:09.187Z,27.25
2018-08-27T19:39:35.064Z,27.28
2018-08-27T19:42:00.969Z,27.22
2018-08-27T19:44:26.940Z,27.20
2018-08-27T19:46:52.977Z,27.17
2018-08-27T19:49:18.978Z,27.07
2018-08-27T19:51:44.963Z,27.07
2018-08-27T19:54:10.925Z,27.11
2018-08-27T19:56:36.925Z,27.01
2018-08-27T19:59:02.891Z,27.10
2018-08-27T20:01:28.862Z,26.94
2018-08-27T20:03:54.839Z,27.08
2018-08-27T20:06:20.929Z,26.95
2018-08-27T20:08:46.796Z,26.89
2018-08-27T20:11:12.785Z,27.06
2018-08-27T20:13:38.753Z,27.07
2018-08-27T20:16:04.734Z,27.00
2018-08-27T20:18:30.744Z,26.92
2018-08-27T20:20:56.729Z,26.95
2018-08-27T20:23:22.703Z,27.06
2018-08-27T20:25:48.722Z,26.93
2018-08-27T20:28:14.650Z,26.96
2018-08-27T20:30:40.675Z,26.75
2018-08-27T20:33:06.746Z,26.65
2018-08-27T20:35:32.595Z,26.71
2018-08-27T20:37:58.525Z,26.72
2018-08-27T20:40:24.490Z,26.67
2018-08-27T20:42:50.455Z,26.63
2018-08-27T20:45:16.464Z,26.38
2018-08-27T20:47:42.396Z,26.46
2018-08-27T20:50:08.403Z,26.58
2018-08-27T20:52:34.391Z,26.32
2018-08-27T20:55:00.362Z,26.39
2018-08-27T20:57:26.309Z,26.60
2018-08-27T20:59:52.278Z,26.36
2018-08-27T21:02:18.233Z,26.44
2018-08-27T21:04:44.197Z,26.39
2018-08-27T21:07:10.161Z,26.40
2018-08-27T21:09:36.119Z,26.50
2018-08-27T21:12:02.066Z,26.31
2018-08-27T21:14:28.027Z,26.24
2018-08-27T21:16:54.005Z,26.15
2018-08-27T21:19:21.107Z,26.07
2018-08-27T21:21:47.073Z,26.37
2018-08-27T21:24:13.014Z,26.19
2018-08-27T21:26:39.056Z,26.27
2018-08-27T21:29:04.962Z,26.36
2018-08-27T21:31:30.920Z,26.46
2018-08-27T21:33:56.884Z,26.21
2018-08-27T21:36:22.842Z,26.26
2018-08-27T21:38:48.802Z,26.19
2018-08-27T21:41:14.743Z,26.24
2018-08-27T21:43:40.713Z,26.19
2018-08-27T21:46:06.655Z,26.41
2018-08-27T21:48:32.620Z,26.30
2018-08-27T21:50:58.583Z,26.24
2018-08-27T21:53:24.529Z,26.40
2018-08-27T21:55:50.615Z,26.42
2018-08-27T21:58:16.545Z,26.44
2018-08-27T22:00:42.497Z,26.29
2018-08-27T22:03:08.467Z,26.38
2018-08-27T22:05:34.416Z,26.23
2018-08-27T22:08:00.388Z,26.30
2018-08-27T22:10:26.332Z,26.02
2018-08-27T22:12:52.339Z,25.95
2018-08-27T22:15:18.271Z,26.08
2018-08-27T22:17:44.212Z,26.15
2018-08-27T22:20:10.184Z,25.93
2018-08-27T22:22:36.168Z,26.09
2018-08-27T22:25:02.124Z,26.05
2018-08-27T22:27:28.078Z,26.18
2018-08-27T22:29:54.027Z,26.12
2018-08-27T22:32:19.981Z,25.92
2018-08-27T22:34:45.921Z,25.89
2018-08-27T22:37:11.900Z,26.05
2018-08-27T22:39:37.869Z,26.10
2018-08-27T22:42:03.815Z,26.04
2018-08-27T22:44:29.775Z,26.09
2018-08-27T22:46:55.731Z,26.01
2018-08-27T22:49:21.718Z,25.89
2018-08-27T22:51:47.658Z,25.86
2018-08-27T22:54:13.607Z,25.89
2018-08-27T22:56:39.600Z,25.92
2018-08-27T22:59:05.548Z,26.03
2018-08-27T23:01:31.488Z,25.90
2018-08-27T23:03:57.469Z,25.68
2018-08-27T23:06:23.398Z,25.86
2018-08-27T23:08:49.370Z,25.91
2018-08-27T23:11:15.353Z,25.81
2018-08-27T23:13:41.319Z,25.76
2018-08-27T23:16:07.289Z,25.81
2018-08-27T23:18:33.266Z,25.98
2018-08-27T23:20:59.216Z,25.74
2018-08-27T23:23:25.166Z,25.63
2018-08-27T23:25:51.129Z,25.84
2018-08-27T23:28:17.109Z,25.84
2018-08-27T23:30:43.088Z,25.57
2018-08-27T23:33:09.070Z,25.67
2018-08-27T23:35:35.020Z,25.77
2018-08-27T23:38:01.231Z,25.89
2018-08-27T23:40:27.180Z,25.67
2018-08-27T23:42:53.132Z,25.62
2018-08-27T23:45:19.442Z,25.44
2018-08-27T23:47:45.379Z,25.48
2018-08-27T23:50:11.359Z,25.22
2018-08-27T23:52:37.285Z,25.36
2018-08-27T23:55:03.264Z,25.70
2018-08-27T23:57:29.227Z,25.58
2018-08-27T23:59:55.171Z,25.39
